createdAt,value
2023-01-17T00:13:33.140Z,16.23
2023-01-17T00:16:21.944Z,15.30
2023-01-17T00:19:27.577Z,14.82
2023-01-17T00:22:46.506Z,15.88
2023-01-17T00:26:01.573Z,16.05
2023-01-17T00:28:47.695Z,15.15
2023-01-17T00:31:36.554Z,16.55
2023-01-17T00:34:32.744Z,15.27
2023-01-17T00:37:23.131Z,15.55
2023-01-17T00:40:09.547Z,15.23
2023-01-17T00:43:14.870Z,16.67
2023-01-17T00:46:19.933Z,15.82
2023-01-17T00:49:26.239Z,17.08
2023-01-17T00:52:34.461Z,14.93
2023-01-17T00:55:42.341Z,15.30
2023-01-17T00:58:48.386Z,16.08
2023-01-17T01:01:54.362Z,16.00
2023-01-17T01:04:59.756Z,16.38
2023-01-17T01:08:05.899Z,16.17
2023-01-17T02:30:27.432Z,18.02
2023-01-17T02:33:41.891Z,17.40
2023-01-17T02:36:38.722Z,18.10
2023-01-17T02:40:10.885Z,15.70
2023-01-17T02:43:23.960Z,16.00
2023-01-17T07:03:26.104Z,10.35
2023-01-17T07:06:12.582Z,10.38
2023-01-17T07:08:59.238Z,10.40
2023-01-17T07:11:45.624Z,10.52
2023-01-17T07:14:31.594Z,10.95
2023-01-17T07:17:17.664Z,9.35
2023-01-17T07:20:03.734Z,8.13
2023-01-17T07:22:50.249Z,8.70
2023-01-17T07:25:36.567Z,12.07
2023-01-17T07:28:31.863Z,8.63
2023-01-17T10:09:51.526Z,8.18
2023-01-17T11:04:26.466Z,7.70
2023-01-17T11:48:44.196Z,6.10
2023-01-17T12:39:26.443Z,3.60
2023-01-17T12:42:36.622Z,3.85
2023-01-17T12:45:35.631Z,4.38
2023-01-17T12:56:13.163Z,5.63
2023-01-17T13:00:16.625Z,5.72
2023-01-17T13:03:25.325Z,4.22
2023-01-17T13:06:23.510Z,10.68
2023-01-17T13:09:10.400Z,11.93
2023-01-17T13:12:06.505Z,18.20
2023-01-17T13:15:03.728Z,9.82
2023-01-17T13:17:54.451Z,3.10
2023-01-17T13:21:07.983Z,4.43
2023-01-17T13:24:02.622Z,15.27
2023-01-17T13:26:50.886Z,3.88
2023-01-17T13:29:58.869Z,6.20
2023-01-17T13:33:04.534Z,7.72
2023-01-17T13:35:59.953Z,4.05
2023-01-17T13:39:05.716Z,3.35
2023-01-17T13:42:06.011Z,2.50
2023-01-17T13:44:57.115Z,3.13
2023-01-17T13:47:52.316Z,4.47
2023-01-17T13:50:39.938Z,3.75
2023-01-17T13:53:29.690Z,4.07
2023-01-17T13:56:53.079Z,4.00
2023-01-17T14:00:28.705Z,4.75
2023-01-17T14:03:56.970Z,6.40
2023-01-17T14:10:51.677Z,2.80
2023-01-17T14:13:46.824Z,4.30
2023-01-17T14:17:35.029Z,3.95
2023-01-17T14:20:26.212Z,4.18
2023-01-17T14:23:25.365Z,4.45
2023-01-17T14:26:34.343Z,4.90
2023-01-17T14:29:52.421Z,5.55
2023-01-17T14:33:03.419Z,3.38
2023-01-17T14:36:35.804Z,4.45
2023-01-17T14:39:25.764Z,3.75
2023-01-17T14:42:17.488Z,11.43
2023-01-17T14:45:09.743Z,7.93
2023-01-17T14:48:02.601Z,4.68
2023-01-17T14:51:01.339Z,3.30
2023-01-17T14:54:07.597Z,39.13
2023-01-17T14:57:14.950Z,22.63
2023-01-17T15:00:23.048Z,16.60
2023-01-17T15:03:12.937Z,18.38
2023-01-17T15:06:11.685Z,22.50
2023-01-17T15:09:01.368Z,26.60
2023-01-17T15:11:49.456Z,28.45
2023-01-17T15:14:40.627Z,37.10
2023-01-17T15:17:28.547Z,57.50
2023-01-17T15:20:17.803Z,83.60
2023-01-17T15:23:16.498Z,88.03
2023-01-17T15:26:35.182Z,55.25
2023-01-17T15:29:44.670Z,49.50
2023-01-17T15:36:35.232Z,32.28
2023-01-17T15:39:54.666Z,27.70
2023-01-17T15:43:05.723Z,32.38
2023-01-17T15:46:03.463Z,39.17
2023-01-17T15:48:52.173Z,32.08
2023-01-17T15:51:59.203Z,47.45
2023-01-17T15:54:56.305Z,21.83
2023-01-17T15:57:47.873Z,36.08
2023-01-17T16:00:44.718Z,32.75
2023-01-17T16:03:33.469Z,33.33
2023-01-17T16:09:45.631Z,55.20
2023-01-17T16:12:43.221Z,39.38
2023-01-17T16:15:41.708Z,30.17
2023-01-17T16:18:30.272Z,41.13
2023-01-17T16:21:24.481Z,49.88
2023-01-17T16:24:12.053Z,45.75
2023-01-17T16:27:08.121Z,39.10
2023-01-17T16:30:02.477Z,47.22
2023-01-17T16:32:56.015Z,24.65
2023-01-17T16:35:51.999Z,33.28
2023-01-17T16:38:46.387Z,32.00
2023-01-17T16:41:42.459Z,65.18
2023-01-17T16:44:33.802Z,72.30
2023-01-17T16:47:23.016Z,62.67
2023-01-17T16:50:12.279Z,42.60
2023-01-17T16:55:57.300Z,62.75
2023-01-17T16:58:56.015Z,51.47
2023-01-17T17:02:08.313Z,50.15
2023-01-17T17:05:01.532Z,38.45
2023-01-17T17:07:54.996Z,45.10
2023-01-17T17:11:01.318Z,54.20
2023-01-17T17:13:53.053Z,32.83
2023-01-17T17:16:42.300Z,24.40
2023-01-17T17:19:30.659Z,30.38
2023-01-17T17:22:18.169Z,26.65
2023-01-17T17:25:10.825Z,30.58
2023-01-17T17:28:22.847Z,19.45
2023-01-17T17:31:22.182Z,20.38
2023-01-17T17:34:17.201Z,19.45
2023-01-17T17:37:13.340Z,29.17
2023-01-17T17:40:18.796Z,31.02
2023-01-17T17:43:13.822Z,22.50
2023-01-17T17:46:08.067Z,11.95
2023-01-17T17:48:58.327Z,9.73
2023-01-17T17:51:45.198Z,8.30
2023-01-17T17:54:31.940Z,7.85
2023-01-17T17:57:18.684Z,9.35
2023-01-17T18:00:06.759Z,8.90
2023-01-17T18:02:53.591Z,12.18
2023-01-17T18:05:39.736Z,14.70
2023-01-17T18:08:34.221Z,29.63
2023-01-17T18:11:24.299Z,28.88
2023-01-17T18:14:14.369Z,17.48
2023-01-17T18:17:00.882Z,20.77
2023-01-17T18:19:47.587Z,23.58
2023-01-17T18:22:37.417Z,30.45
2023-01-17T18:25:24.576Z,18.60
2023-01-17T18:28:10.832Z,16.10
2023-01-17T18:31:07.154Z,20.30
2023-01-17T18:34:17.945Z,15.25
2023-01-17T18:37:07.757Z,19.13
2023-01-17T18:40:00.320Z,30.02
2023-01-17T18:42:55.003Z,41.08
2023-01-17T18:45:45.146Z,44.97
2023-01-17T18:49:03.801Z,62.10
2023-01-17T18:52:00.759Z,60.55
2023-01-17T18:55:30.195Z,69.25
2023-01-17T18:59:02.003Z,70.70
2023-01-17T19:18:32.135Z,182.27
2023-01-17T19:39:18.102Z,94.55
2023-01-17T19:51:41.428Z,59.00
2023-01-17T19:56:07.569Z,71.97
2023-01-17T19:59:55.447Z,48.33
2023-01-17T20:03:43.784Z,44.28
2023-01-17T20:06:38.350Z,47.42
2023-01-17T20:09:57.187Z,47.40
2023-01-17T20:12:53.598Z,38.65
2023-01-17T20:15:46.429Z,42.70
2023-01-17T20:21:34.210Z,47.63
2023-01-17T20:24:34.019Z,54.63
2023-01-17T20:27:33.196Z,84.78
2023-01-17T20:30:34.876Z,84.07
2023-01-17T20:33:25.776Z,55.78
2023-01-17T20:41:30.155Z,98.80
2023-01-17T20:44:17.340Z,122.93
2023-01-17T20:47:05.940Z,135.57
2023-01-17T20:49:52.260Z,138.15
2023-01-17T20:52:40.693Z,115.05
2023-01-17T20:55:28.070Z,115.57
2023-01-17T20:58:21.368Z,111.88
2023-01-17T21:01:12.473Z,100.40
2023-01-17T21:04:05.050Z,106.57
2023-01-17T21:07:07.501Z,86.30
2023-01-17T21:10:04.104Z,68.72
2023-01-17T21:12:52.285Z,56.17
2023-01-17T21:15:44.930Z,47.70
2023-01-17T21:21:25.936Z,61.63
2023-01-17T21:24:19.951Z,112.07
2023-01-17T21:27:09.715Z,75.53
2023-01-17T21:30:01.552Z,58.13
2023-01-17T21:32:56.416Z,60.55
2023-01-17T21:35:46.600Z,42.92
2023-01-17T21:38:40.657Z,35.45
2023-01-17T21:41:30.082Z,84.10
2023-01-17T21:44:28.162Z,68.45
2023-01-17T21:47:20.075Z,46.97
2023-01-17T21:50:10.951Z,41.20
2023-01-17T21:52:57.237Z,34.45
2023-01-17T21:56:04.233Z,33.65
2023-01-17T21:58:54.534Z,33.50
2023-01-17T22:01:45.874Z,36.00
2023-01-17T22:04:35.764Z,54.03
2023-01-17T22:07:27.990Z,54.38
2023-01-17T22:10:14.400Z,43.13
2023-01-17T22:13:00.912Z,38.90
2023-01-17T22:15:59.193Z,40.28
2023-01-17T22:18:46.266Z,42.78
2023-01-17T22:21:33.014Z,42.88
2023-01-17T22:24:19.779Z,39.83
2023-01-17T22:27:09.878Z,43.33
2023-01-17T22:29:56.336Z,48.28
2023-01-17T22:32:42.274Z,38.90
2023-01-17T22:35:29.569Z,44.03
2023-01-17T22:38:15.608Z,44.97
2023-01-17T22:41:08.154Z,49.67
2023-01-17T22:43:57.692Z,49.50
2023-01-17T22:46:45.369Z,51.38
2023-01-17T22:49:31.918Z,51.70
2023-01-17T22:52:18.477Z,63.50
2023-01-17T22:55:06.144Z,58.22
2023-01-17T22:57:52.831Z,55.05
2023-01-17T23:00:39.322Z,53.92
2023-01-17T23:03:27.177Z,58.85
2023-01-17T23:06:16.940Z,50.38
2023-01-17T23:09:13.857Z,46.08
2023-01-17T23:12:01.833Z,39.58
2023-01-17T23:15:16.111Z,40.40
2023-01-17T23:18:20.919Z,42.28
2023-01-17T23:21:09.445Z,48.05
2023-01-17T23:23:55.075Z,45.20
2023-01-17T23:27:02.745Z,50.25
2023-01-17T23:29:50.621Z,48.05
2023-01-17T23:32:42.091Z,48.70
2023-01-17T23:35:34.005Z,47.35
2023-01-17T23:38:26.540Z,46.70
2023-01-17T23:41:32.067Z,67.28
2023-01-17T23:44:20.521Z,136.23
2023-01-17T23:47:08.426Z,73.05
2023-01-17T23:49:55.209Z,74.13
2023-01-17T23:52:41.192Z,50.95
2023-01-17T23:55:27.753Z,42.22
2023-01-17T23:58:14.299Z,45.05
